sensor_id;sensor_type;location;lat;lon;timestamp;P1;durP1;ratioP1;P2;durP2;ratioP2
13967;SDS011;39536;52.198;9.920;2023-02-28T00:01:13;8.30;;;6.30;;
13967;SDS011;39536;52.198;9.920;2023-02-28T00:03:41;7.70;;;6.43;;
13967;SDS011;39536;52.198;9.920;2023-02-28T00:06:07;7.33;;;6.27;;
13967;SDS011;39536;52.198;9.920;2023-02-28T00:08:35;7.63;;;6.53;;
13967;SDS011;39536;52.198;9.920;2023-02-28T00:11:02;7.23;;;6.53;;
13967;SDS011;39536;52.198;9.920;2023-02-28T00:13:30;9.70;;;6.67;;
13967;SDS011;39536;52.198;9.920;2023-02-28T00:16:02;6.77;;;6.13;;
13967;SDS011;39536;52.198;9.920;2023-02-28T00:18:29;7.40;;;6.50;;
13967;SDS011;39536;52.198;9.920;2023-02-28T00:20:56;9.97;;;6.87;;
13967;SDS011;39536;52.198;9.920;2023-02-28T00:23:23;6.87;;;6.27;;
13967;SDS011;39536;52.198;9.920;2023-02-28T00:25:49;7.50;;;6.63;;
13967;SDS011;39536;52.198;9.920;2023-02-28T00:28:16;10.87;;;7.67;;
13967;SDS011;39536;52.198;9.920;2023-02-28T00:30:43;9.63;;;7.73;;
13967;SDS011;39536;52.198;9.920;2023-02-28T00:33:11;8.40;;;7.70;;
13967;SDS011;39536;52.198;9.920;2023-02-28T00:35:38;8.77;;;7.87;;
13967;SDS011;39536;52.198;9.920;2023-02-28T00:38:05;8.00;;;7.20;;
13967;SDS011;39536;52.198;9.920;2023-02-28T00:40:31;9.47;;;7.67;;
13967;SDS011;39536;52.198;9.920;2023-02-28T00:42:58;8.27;;;7.43;;
13967;SDS011;39536;52.198;9.920;2023-02-28T00:45:25;7.60;;;6.93;;
13967;SDS011;39536;52.198;9.920;2023-02-28T00:47:51;7.30;;;6.60;;
13967;SDS011;39536;52.198;9.920;2023-02-28T00:50:20;7.90;;;7.20;;
13967;SDS011;39536;52.198;9.920;2023-02-28T00:52:47;10.07;;;7.23;;
13967;SDS011;39536;52.198;9.920;2023-02-28T00:55:14;10.17;;;6.77;;
13967;SDS011;39536;52.198;9.920;2023-02-28T00:57:40;7.27;;;6.57;;
13967;SDS011;39536;52.198;9.920;2023-02-28T01:00:07;7.10;;;6.40;;
13967;SDS011;39536;52.198;9.920;2023-02-28T01:02:36;7.23;;;6.43;;
13967;SDS011;39536;52.198;9.920;2023-02-28T01:05:02;7.57;;;6.77;;
13967;SDS011;39536;52.198;9.920;2023-02-28T01:07:31;6.83;;;6.13;;
13967;SDS011;39536;52.198;9.920;2023-02-28T01:09:57;7.20;;;6.50;;
13967;SDS011;39536;52.198;9.920;2023-02-28T01:12:24;6.63;;;6.03;;
13967;SDS011;39536;52.198;9.920;2023-02-28T01:14:51;6.47;;;5.90;;
13967;SDS011;39536;52.198;9.920;2023-02-28T01:17:17;6.63;;;6.03;;
13967;SDS011;39536;52.198;9.920;2023-02-28T01:19:44;5.90;;;5.40;;
13967;SDS011;39536;52.198;9.920;2023-02-28T01:24:39;8.40;;;6.20;;
13967;SDS011;39536;52.198;9.920;2023-02-28T01:27:06;6.60;;;6.10;;
13967;SDS011;39536;52.198;9.920;2023-02-28T01:29:33;6.43;;;5.83;;
13967;SDS011;39536;52.198;9.920;2023-02-28T01:31:59;6.90;;;6.30;;
13967;SDS011;39536;52.198;9.920;2023-02-28T01:34:26;5.80;;;5.33;;
13967;SDS011;39536;52.198;9.920;2023-02-28T01:36:52;6.70;;;6.07;;
13967;SDS011;39536;52.198;9.920;2023-02-28T01:39:19;6.77;;;6.10;;
13967;SDS011;39536;52.198;9.920;2023-02-28T01:41:47;8.57;;;6.53;;
13967;SDS011;39536;52.198;9.920;2023-02-28T01:47:14;8.80;;;6.13;;
13967;SDS011;39536;52.198;9.920;2023-02-28T01:49:41;7.10;;;6.50;;
13967;SDS011;39536;52.198;9.920;2023-02-28T01:52:08;7.30;;;6.17;;
13967;SDS011;39536;52.198;9.920;2023-02-28T01:54:39;6.47;;;5.93;;
13967;SDS011;39536;52.198;9.920;2023-02-28T01:57:09;6.80;;;6.20;;
13967;SDS011;39536;52.198;9.920;2023-02-28T01:59:38;9.07;;;6.90;;
13967;SDS011;39536;52.198;9.920;2023-02-28T02:02:11;7.10;;;6.27;;
13967;SDS011;39536;52.198;9.920;2023-02-28T02:04:38;8.40;;;7.17;;
13967;SDS011;39536;52.198;9.920;2023-02-28T02:07:16;7.20;;;6.50;;
13967;SDS011;39536;52.198;9.920;2023-02-28T02:09:43;7.23;;;6.53;;
13967;SDS011;39536;52.198;9.920;2023-02-28T02:12:12;6.87;;;6.17;;
13967;SDS011;39536;52.198;9.920;2023-02-28T02:14:54;8.73;;;6.90;;
13967;SDS011;39536;52.198;9.920;2023-02-28T02:17:32;6.87;;;5.90;;
13967;SDS011;39536;52.198;9.920;2023-02-28T02:25:57;8.97;;;6.73;;
13967;SDS011;39536;52.198;9.920;2023-02-28T02:28:51;8.17;;;6.97;;
13967;SDS011;39536;52.198;9.920;2023-02-28T02:34:27;6.40;;;5.80;;
13967;SDS011;39536;52.198;9.920;2023-02-28T02:37:08;6.10;;;5.50;;
13967;SDS011;39536;52.198;9.920;2023-02-28T02:39:44;6.33;;;5.77;;
13967;SDS011;39536;52.198;9.920;2023-02-28T02:42:20;6.87;;;6.13;;
13967;SDS011;39536;52.198;9.920;2023-02-28T02:44:52;7.47;;;5.80;;
13967;SDS011;39536;52.198;9.920;2023-02-28T02:47:24;8.37;;;6.27;;
13967;SDS011;39536;52.198;9.920;2023-02-28T02:49:55;7.10;;;6.40;;
13967;SDS011;39536;52.198;9.920;2023-02-28T02:52:27;7.67;;;5.80;;
13967;SDS011;39536;52.198;9.920;2023-02-28T02:54:58;7.17;;;6.43;;
13967;SDS011;39536;52.198;9.920;2023-02-28T02:57:30;8.07;;;6.13;;
13967;SDS011;39536;52.198;9.920;2023-02-28T03:00:02;6.80;;;6.20;;
13967;SDS011;39536;52.198;9.920;2023-02-28T03:02:33;6.73;;;6.13;;
13967;SDS011;39536;52.198;9.920;2023-02-28T03:05:04;7.47;;;6.70;;
13967;SDS011;39536;52.198;9.920;2023-02-28T03:07:34;7.60;;;6.17;;
13967;SDS011;39536;52.198;9.920;2023-02-28T03:10:01;7.27;;;6.50;;
13967;SDS011;39536;52.198;9.920;2023-02-28T03:12:32;7.30;;;6.60;;
13967;SDS011;39536;52.198;9.920;2023-02-28T03:15:08;7.47;;;6.10;;
13967;SDS011;39536;52.198;9.920;2023-02-28T03:17:47;11.60;;;6.97;;
13967;SDS011;39536;52.198;9.920;2023-02-28T03:20:24;7.37;;;6.67;;
13967;SDS011;39536;52.198;9.920;2023-02-28T03:23:01;8.07;;;6.60;;
13967;SDS011;39536;52.198;9.920;2023-02-28T03:25:37;6.60;;;6.00;;
13967;SDS011;39536;52.198;9.920;2023-02-28T03:28:15;7.60;;;6.13;;
13967;SDS011;39536;52.198;9.920;2023-02-28T03:30:47;12.63;;;6.90;;
13967;SDS011;39536;52.198;9.920;2023-02-28T03:33:19;7.43;;;6.63;;
13967;SDS011;39536;52.198;9.920;2023-02-28T03:35:52;7.23;;;6.60;;
13967;SDS011;39536;52.198;9.920;2023-02-28T03:38:22;7.23;;;5.97;;
13967;SDS011;39536;52.198;9.920;2023-02-28T03:40:55;7.13;;;6.47;;
13967;SDS011;39536;52.198;9.920;2023-02-28T03:43:27;7.63;;;6.10;;
13967;SDS011;39536;52.198;9.920;2023-02-28T03:45:58;6.80;;;6.20;;
13967;SDS011;39536;52.198;9.920;2023-02-28T03:48:29;8.13;;;7.33;;
13967;SDS011;39536;52.198;9.920;2023-02-28T03:51:02;7.27;;;6.63;;
13967;SDS011;39536;52.198;9.920;2023-02-28T03:53:34;7.57;;;6.70;;
13967;SDS011;39536;52.198;9.920;2023-02-28T03:56:05;8.87;;;7.00;;
13967;SDS011;39536;52.198;9.920;2023-02-28T03:58:37;7.80;;;7.10;;
13967;SDS011;39536;52.198;9.920;2023-02-28T04:01:09;8.20;;;7.47;;
13967;SDS011;39536;52.198;9.920;2023-02-28T04:03:41;7.00;;;6.30;;
13967;SDS011;39536;52.198;9.920;2023-02-28T04:06:12;7.80;;;7.10;;
13967;SDS011;39536;52.198;9.920;2023-02-28T04:08:42;8.40;;;7.50;;
13967;SDS011;39536;52.198;9.920;2023-02-28T04:11:13;10.53;;;7.10;;
13967;SDS011;39536;52.198;9.920;2023-02-28T04:13:46;8.33;;;6.90;;
13967;SDS011;39536;52.198;9.920;2023-02-28T04:16:13;8.00;;;7.13;;
13967;SDS011;39536;52.198;9.920;2023-02-28T04:18:40;7.83;;;7.13;;
13967;SDS011;39536;52.198;9.920;2023-02-28T04:21:08;12.20;;;7.07;;
13967;SDS011;39536;52.198;9.920;2023-02-28T04:23:36;7.50;;;6.80;;
13967;SDS011;39536;52.198;9.920;2023-02-28T04:26:03;7.07;;;6.47;;
13967;SDS011;39536;52.198;9.920;2023-02-28T04:28:31;7.13;;;6.47;;
13967;SDS011;39536;52.198;9.920;2023-02-28T04:30:58;6.90;;;5.67;;
13967;SDS011;39536;52.198;9.920;2023-02-28T04:33:26;8.20;;;6.67;;
13967;SDS011;39536;52.198;9.920;2023-02-28T04:35:59;6.47;;;5.97;;
13967;SDS011;39536;52.198;9.920;2023-02-28T04:38:27;6.23;;;5.67;;
13967;SDS011;39536;52.198;9.920;2023-02-28T04:40:57;6.43;;;5.80;;
13967;SDS011;39536;52.198;9.920;2023-02-28T04:43:25;6.27;;;5.73;;
13967;SDS011;39536;52.198;9.920;2023-02-28T04:45:52;6.40;;;5.80;;
13967;SDS011;39536;52.198;9.920;2023-02-28T04:48:21;5.43;;;4.83;;
13967;SDS011;39536;52.198;9.920;2023-02-28T04:50:48;5.53;;;5.03;;
13967;SDS011;39536;52.198;9.920;2023-02-28T04:53:14;7.50;;;5.17;;
13967;SDS011;39536;52.198;9.920;2023-02-28T04:55:41;5.80;;;5.30;;
13967;SDS011;39536;52.198;9.920;2023-02-28T04:58:09;5.87;;;5.33;;
13967;SDS011;39536;52.198;9.920;2023-02-28T05:00:35;6.37;;;5.27;;
13967;SDS011;39536;52.198;9.920;2023-02-28T05:03:02;6.60;;;5.30;;
13967;SDS011;39536;52.198;9.920;2023-02-28T05:05:29;7.87;;;5.40;;
13967;SDS011;39536;52.198;9.920;2023-02-28T05:07:56;6.17;;;5.67;;
13967;SDS011;39536;52.198;9.920;2023-02-28T05:10:22;6.30;;;5.47;;
13967;SDS011;39536;52.198;9.920;2023-02-28T05:12:49;6.43;;;5.83;;
13967;SDS011;39536;52.198;9.920;2023-02-28T05:15:17;6.37;;;5.77;;
13967;SDS011;39536;52.198;9.920;2023-02-28T05:17:44;6.10;;;5.50;;
13967;SDS011;39536;52.198;9.920;2023-02-28T05:20:11;6.03;;;5.53;;
13967;SDS011;39536;52.198;9.920;2023-02-28T05:22:38;5.87;;;5.27;;
13967;SDS011;39536;52.198;9.920;2023-02-28T05:25:05;6.77;;;5.50;;
13967;SDS011;39536;52.198;9.920;2023-02-28T05:27:33;6.63;;;5.70;;
13967;SDS011;39536;52.198;9.920;2023-02-28T05:29:59;6.00;;;5.10;;
13967;SDS011;39536;52.198;9.920;2023-02-28T05:32:29;6.80;;;5.23;;
13967;SDS011;39536;52.198;9.920;2023-02-28T05:34:56;6.50;;;4.97;;
13967;SDS011;39536;52.198;9.920;2023-02-28T05:37:23;5.20;;;4.77;;
13967;SDS011;39536;52.198;9.920;2023-02-28T05:39:49;5.43;;;4.93;;
13967;SDS011;39536;52.198;9.920;2023-02-28T05:42:16;6.53;;;5.40;;
13967;SDS011;39536;52.198;9.920;2023-02-28T05:44:43;5.10;;;4.70;;
13967;SDS011;39536;52.198;9.920;2023-02-28T05:47:09;9.37;;;4.97;;
13967;SDS011;39536;52.198;9.920;2023-02-28T05:49:39;5.93;;;5.30;;
13967;SDS011;39536;52.198;9.920;2023-02-28T05:52:05;6.00;;;5.40;;
13967;SDS011;39536;52.198;9.920;2023-02-28T05:54:32;6.73;;;6.10;;
13967;SDS011;39536;52.198;9.920;2023-02-28T05:56:58;7.77;;;6.00;;
13967;SDS011;39536;52.198;9.920;2023-02-28T05:59:25;7.73;;;6.40;;
13967;SDS011;39536;52.198;9.920;2023-02-28T06:01:52;6.73;;;6.00;;
13967;SDS011;39536;52.198;9.920;2023-02-28T06:04:19;5.63;;;5.10;;
13967;SDS011;39536;52.198;9.920;2023-02-28T06:06:48;9.67;;;6.37;;
13967;SDS011;39536;52.198;9.920;2023-02-28T06:09:15;8.07;;;7.27;;
13967;SDS011;39536;52.198;9.920;2023-02-28T06:11:44;6.93;;;6.23;;
13967;SDS011;39536;52.198;9.920;2023-02-28T06:14:12;9.67;;;7.80;;
13967;SDS011;39536;52.198;9.920;2023-02-28T06:16:41;11.60;;;7.53;;
13967;SDS011;39536;52.198;9.920;2023-02-28T06:19:09;11.37;;;7.60;;
13967;SDS011;39536;52.198;9.920;2023-02-28T06:21:36;8.63;;;6.20;;
13967;SDS011;39536;52.198;9.920;2023-02-28T06:24:04;7.03;;;5.73;;
13967;SDS011;39536;52.198;9.920;2023-02-28T06:26:31;7.70;;;6.77;;
13967;SDS011;39536;52.198;9.920;2023-02-28T06:28:58;11.00;;;7.23;;
13967;SDS011;39536;52.198;9.920;2023-02-28T06:31:25;9.27;;;7.73;;
13967;SDS011;39536;52.198;9.920;2023-02-28T06:33:54;7.97;;;7.20;;
13967;SDS011;39536;52.198;9.920;2023-02-28T06:36:21;7.87;;;7.07;;
13967;SDS011;39536;52.198;9.920;2023-02-28T06:38:48;17.73;;;7.80;;
13967;SDS011;39536;52.198;9.920;2023-02-28T06:41:20;8.77;;;7.60;;
13967;SDS011;39536;52.198;9.920;2023-02-28T06:43:48;7.67;;;6.90;;
13967;SDS011;39536;52.198;9.920;2023-02-28T06:46:14;15.53;;;7.20;;
13967;SDS011;39536;52.198;9.920;2023-02-28T06:48:42;7.50;;;6.80;;
13967;SDS011;39536;52.198;9.920;2023-02-28T06:51:10;7.70;;;7.00;;
13967;SDS011;39536;52.198;9.920;2023-02-28T06:53:38;8.93;;;6.57;;
13967;SDS011;39536;52.198;9.920;2023-02-28T06:56:05;8.13;;;6.80;;
13967;SDS011;39536;52.198;9.920;2023-02-28T06:58:34;9.90;;;7.00;;
13967;SDS011;39536;52.198;9.920;2023-02-28T07:01:02;11.20;;;6.93;;
13967;SDS011;39536;52.198;9.920;2023-02-28T07:03:29;6.80;;;6.20;;
13967;SDS011;39536;52.198;9.920;2023-02-28T07:05:56;7.70;;;7.00;;
13967;SDS011;39536;52.198;9.920;2023-02-28T07:08:23;7.17;;;6.33;;
13967;SDS011;39536;52.198;9.920;2023-02-28T07:10:51;11.43;;;8.07;;
13967;SDS011;39536;52.198;9.920;2023-02-28T07:13:19;9.60;;;8.40;;
13967;SDS011;39536;52.198;9.920;2023-02-28T07:15:53;8.47;;;7.67;;
13967;SDS011;39536;52.198;9.920;2023-02-28T07:18:21;8.40;;;7.70;;
13967;SDS011;39536;52.198;9.920;2023-02-28T07:20:48;8.50;;;7.80;;
13967;SDS011;39536;52.198;9.920;2023-02-28T07:23:14;11.20;;;8.93;;
13967;SDS011;39536;52.198;9.920;2023-02-28T07:25:41;9.73;;;8.83;;
13967;SDS011;39536;52.198;9.920;2023-02-28T07:28:08;11.77;;;8.57;;
13967;SDS011;39536;52.198;9.920;2023-02-28T07:30:34;9.00;;;8.20;;
13967;SDS011;39536;52.198;9.920;2023-02-28T07:33:03;12.20;;;8.43;;
13967;SDS011;39536;52.198;9.920;2023-02-28T07:35:30;10.70;;;7.90;;
13967;SDS011;39536;52.198;9.920;2023-02-28T07:37:57;11.63;;;7.93;;
13967;SDS011;39536;52.198;9.920;2023-02-28T07:40:24;9.90;;;8.87;;
13967;SDS011;39536;52.198;9.920;2023-02-28T07:42:54;13.27;;;9.40;;
13967;SDS011;39536;52.198;9.920;2023-02-28T07:45:26;13.53;;;9.27;;
13967;SDS011;39536;52.198;9.920;2023-02-28T07:47:54;19.43;;;9.53;;
13967;SDS011;39536;52.198;9.920;2023-02-28T07:50:23;8.67;;;7.83;;
13967;SDS011;39536;52.198;9.920;2023-02-28T07:52:52;12.00;;;9.17;;
13967;SDS011;39536;52.198;9.920;2023-02-28T07:55:23;9.20;;;8.17;;
13967;SDS011;39536;52.198;9.920;2023-02-28T07:57:50;8.90;;;8.00;;
13967;SDS011;39536;52.198;9.920;2023-02-28T08:00:22;11.30;;;7.67;;
13967;SDS011;39536;52.198;9.920;2023-02-28T08:02:50;8.40;;;7.70;;
13967;SDS011;39536;52.198;9.920;2023-02-28T08:05:19;10.57;;;8.40;;
13967;SDS011;39536;52.198;9.920;2023-02-28T08:07:48;9.60;;;7.93;;
13967;SDS011;39536;52.198;9.920;2023-02-28T08:10:15;8.60;;;7.70;;
13967;SDS011;39536;52.198;9.920;2023-02-28T08:12:41;9.33;;;8.40;;
13967;SDS011;39536;52.198;9.920;2023-02-28T08:15:09;17.53;;;8.50;;
13967;SDS011;39536;52.198;9.920;2023-02-28T08:17:36;8.23;;;7.33;;
13967;SDS011;39536;52.198;9.920;2023-02-28T08:20:02;9.43;;;7.03;;
13967;SDS011;39536;52.198;9.920;2023-02-28T08:22:30;8.73;;;7.73;;
13967;SDS011;39536;52.198;9.920;2023-02-28T08:24:57;8.53;;;7.13;;
13967;SDS011;39536;52.198;9.920;2023-02-28T08:27:24;8.40;;;7.50;;
13967;SDS011;39536;52.198;9.920;2023-02-28T08:29:51;10.57;;;7.57;;
13967;SDS011;39536;52.198;9.920;2023-02-28T08:32:17;7.93;;;7.17;;
13967;SDS011;39536;52.198;9.920;2023-02-28T08:34:44;8.13;;;7.40;;
13967;SDS011;39536;52.198;9.920;2023-02-28T08:37:10;8.10;;;7.30;;
13967;SDS011;39536;52.198;9.920;2023-02-28T08:39:37;6.83;;;6.23;;
13967;SDS011;39536;52.198;9.920;2023-02-28T08:42:05;13.03;;;7.23;;
13967;SDS011;39536;52.198;9.920;2023-02-28T08:44:31;6.13;;;5.57;;
13967;SDS011;39536;52.198;9.920;2023-02-28T08:46:58;6.27;;;5.63;;
13967;SDS011;39536;52.198;9.920;2023-02-28T08:49:26;5.63;;;5.07;;
13967;SDS011;39536;52.198;9.920;2023-02-28T08:51:53;6.33;;;5.73;;
13967;SDS011;39536;52.198;9.920;2023-02-28T08:54:20;9.47;;;5.03;;
13967;SDS011;39536;52.198;9.920;2023-02-28T08:56:48;5.63;;;5.10;;
13967;SDS011;39536;52.198;9.920;2023-02-28T08:59:16;5.13;;;4.67;;
13967;SDS011;39536;52.198;9.920;2023-02-28T09:01:42;5.53;;;5.03;;
13967;SDS011;39536;52.198;9.920;2023-02-28T09:04:09;6.00;;;5.50;;
13967;SDS011;39536;52.198;9.920;2023-02-28T09:06:36;5.70;;;4.90;;
13967;SDS011;39536;52.198;9.920;2023-02-28T09:09:03;9.30;;;5.30;;
13967;SDS011;39536;52.198;9.920;2023-02-28T09:11:31;5.47;;;4.70;;
13967;SDS011;39536;52.198;9.920;2023-02-28T09:13:58;5.33;;;4.83;;
13967;SDS011;39536;52.198;9.920;2023-02-28T09:16:26;5.70;;;5.20;;
13967;SDS011;39536;52.198;9.920;2023-02-28T09:18:53;5.17;;;4.67;;
13967;SDS011;39536;52.198;9.920;2023-02-28T09:21:19;5.30;;;4.87;;
13967;SDS011;39536;52.198;9.920;2023-02-28T09:23:46;4.50;;;4.10;;
13967;SDS011;39536;52.198;9.920;2023-02-28T09:26:14;11.07;;;4.77;;
13967;SDS011;39536;52.198;9.920;2023-02-28T09:28:42;4.67;;;4.17;;
13967;SDS011;39536;52.198;9.920;2023-02-28T09:31:11;4.70;;;4.30;;
13967;SDS011;39536;52.198;9.920;2023-02-28T09:33:40;5.23;;;4.73;;
13967;SDS011;39536;52.198;9.920;2023-02-28T09:36:07;8.77;;;4.83;;
13967;SDS011;39536;52.198;9.920;2023-02-28T09:38:34;10.43;;;5.27;;
13967;SDS011;39536;52.198;9.920;2023-02-28T09:41:02;5.00;;;4.50;;
13967;SDS011;39536;52.198;9.920;2023-02-28T09:43:31;7.57;;;4.33;;
13967;SDS011;39536;52.198;9.920;2023-02-28T09:46:02;4.50;;;4.03;;
13967;SDS011;39536;52.198;9.920;2023-02-28T09:48:36;3.70;;;3.40;;
13967;SDS011;39536;52.198;9.920;2023-02-28T09:51:12;3.50;;;3.20;;
13967;SDS011;39536;52.198;9.920;2023-02-28T09:53:49;4.30;;;3.73;;
13967;SDS011;39536;52.198;9.920;2023-02-28T09:56:18;5.50;;;3.40;;
13967;SDS011;39536;52.198;9.920;2023-02-28T09:58:51;3.90;;;3.47;;
13967;SDS011;39536;52.198;9.920;2023-02-28T10:01:24;4.80;;;3.70;;
13967;SDS011;39536;52.198;9.920;2023-02-28T10:03:55;4.17;;;3.20;;
13967;SDS011;39536;52.198;9.920;2023-02-28T10:06:28;5.40;;;3.93;;
13967;SDS011;39536;52.198;9.920;2023-02-28T10:09:00;4.47;;;3.43;;
13967;SDS011;39536;52.198;9.920;2023-02-28T10:11:29;4.43;;;3.47;;
13967;SDS011;39536;52.198;9.920;2023-02-28T10:14:02;4.97;;;3.60;;
13967;SDS011;39536;52.198;9.920;2023-02-28T10:16:31;4.17;;;3.77;;
13967;SDS011;39536;52.198;9.920;2023-02-28T10:19:03;4.53;;;4.13;;
13967;SDS011;39536;52.198;9.920;2023-02-28T10:21:34;4.93;;;3.73;;
13967;SDS011;39536;52.198;9.920;2023-02-28T10:24:05;4.93;;;3.87;;
13967;SDS011;39536;52.198;9.920;2023-02-28T10:26:42;3.87;;;3.57;;
13967;SDS011;39536;52.198;9.920;2023-02-28T10:29:11;4.30;;;3.83;;
13967;SDS011;39536;52.198;9.920;2023-02-28T10:31:37;4.80;;;4.20;;
13967;SDS011;39536;52.198;9.920;2023-02-28T10:34:05;4.33;;;3.93;;
13967;SDS011;39536;52.198;9.920;2023-02-28T10:36:33;4.83;;;4.23;;
13967;SDS011;39536;52.198;9.920;2023-02-28T10:38:59;4.67;;;3.90;;
13967;SDS011;39536;52.198;9.920;2023-02-28T10:41:27;5.17;;;4.57;;
13967;SDS011;39536;52.198;9.920;2023-02-28T10:44:12;5.00;;;4.10;;
13967;SDS011;39536;52.198;9.920;2023-02-28T10:46:40;5.83;;;4.13;;
13967;SDS011;39536;52.198;9.920;2023-02-28T10:49:12;4.87;;;4.40;;
13967;SDS011;39536;52.198;9.920;2023-02-28T10:51:42;3.67;;;3.40;;
13967;SDS011;39536;52.198;9.920;2023-02-28T10:54:15;5.10;;;3.90;;
13967;SDS011;39536;52.198;9.920;2023-02-28T10:56:43;4.00;;;3.60;;
13967;SDS011;39536;52.198;9.920;2023-02-28T10:59:22;4.67;;;4.20;;
13967;SDS011;39536;52.198;9.920;2023-02-28T11:01:53;4.90;;;4.37;;
13967;SDS011;39536;52.198;9.920;2023-02-28T11:04:23;4.40;;;4.00;;
13967;SDS011;39536;52.198;9.920;2023-02-28T11:07:02;3.73;;;3.43;;
13967;SDS011;39536;52.198;9.920;2023-02-28T11:09:32;4.10;;;3.73;;
13967;SDS011;39536;52.198;9.920;2023-02-28T11:12:01;4.23;;;3.80;;
13967;SDS011;39536;52.198;9.920;2023-02-28T11:14:30;4.07;;;3.67;;
13967;SDS011;39536;52.198;9.920;2023-02-28T11:17:02;4.30;;;3.40;;
13967;SDS011;39536;52.198;9.920;2023-02-28T11:19:45;3.90;;;3.20;;
13967;SDS011;39536;52.198;9.920;2023-02-28T11:22:18;6.43;;;3.60;;
13967;SDS011;39536;52.198;9.920;2023-02-28T11:24:47;12.60;;;3.50;;
13967;SDS011;39536;52.198;9.920;2023-02-28T11:27:40;4.37;;;3.97;;
13967;SDS011;39536;52.198;9.920;2023-02-28T11:30:22;4.23;;;3.77;;
13967;SDS011;39536;52.198;9.920;2023-02-28T11:32:53;3.20;;;2.90;;
13967;SDS011;39536;52.198;9.920;2023-02-28T11:35:21;3.87;;;3.50;;
13967;SDS011;39536;52.198;9.920;2023-02-28T11:37:52;3.50;;;3.20;;
13967;SDS011;39536;52.198;9.920;2023-02-28T11:40:21;6.03;;;3.67;;
13967;SDS011;39536;52.198;9.920;2023-02-28T11:42:55;5.23;;;3.00;;
13967;SDS011;39536;52.198;9.920;2023-02-28T11:45:38;5.20;;;3.47;;
13967;SDS011;39536;52.198;9.920;2023-02-28T11:48:18;4.43;;;3.23;;
13967;SDS011;39536;52.198;9.920;2023-02-28T11:50:57;3.10;;;2.90;;
13967;SDS011;39536;52.198;9.920;2023-02-28T11:53:39;3.73;;;2.10;;
13967;SDS011;39536;52.198;9.920;2023-02-28T11:56:23;2.40;;;2.20;;
13967;SDS011;39536;52.198;9.920;2023-02-28T11:59:00;2.30;;;2.10;;
13967;SDS011;39536;52.198;9.920;2023-02-28T12:01:43;2.67;;;2.47;;
13967;SDS011;39536;52.198;9.920;2023-02-28T12:04:24;2.80;;;2.10;;
13967;SDS011;39536;52.198;9.920;2023-02-28T12:06:57;2.77;;;2.50;;
13967;SDS011;39536;52.198;9.920;2023-02-28T12:09:43;3.77;;;3.10;;
13967;SDS011;39536;52.198;9.920;2023-02-28T12:12:21;3.20;;;2.90;;
13967;SDS011;39536;52.198;9.920;2023-02-28T12:15:02;2.83;;;2.60;;
13967;SDS011;39536;52.198;9.920;2023-02-28T12:17:46;2.43;;;2.30;;
13967;SDS011;39536;52.198;9.920;2023-02-28T12:20:25;3.03;;;2.57;;
13967;SDS011;39536;52.198;9.920;2023-02-28T12:23:00;2.60;;;2.40;;
13967;SDS011;39536;52.198;9.920;2023-02-28T12:25:47;4.27;;;2.50;;
13967;SDS011;39536;52.198;9.920;2023-02-28T12:28:23;2.13;;;1.70;;
13967;SDS011;39536;52.198;9.920;2023-02-28T12:30:53;2.90;;;2.60;;
13967;SDS011;39536;52.198;9.920;2023-02-28T12:33:24;2.80;;;2.60;;
13967;SDS011;39536;52.198;9.920;2023-02-28T12:35:58;2.77;;;2.57;;
13967;SDS011;39536;52.198;9.920;2023-02-28T12:38:28;3.33;;;3.03;;
13967;SDS011;39536;52.198;9.920;2023-02-28T12:40:59;3.57;;;2.97;;
13967;SDS011;39536;52.198;9.920;2023-02-28T12:43:31;2.50;;;2.30;;
13967;SDS011;39536;52.198;9.920;2023-02-28T12:46:02;2.60;;;2.40;;
13967;SDS011;39536;52.198;9.920;2023-02-28T12:48:37;3.07;;;2.60;;
13967;SDS011;39536;52.198;9.920;2023-02-28T12:51:08;3.00;;;2.80;;
13967;SDS011;39536;52.198;9.920;2023-02-28T12:53:39;4.17;;;3.43;;
13967;SDS011;39536;52.198;9.920;2023-02-28T12:56:24;2.80;;;2.50;;
13967;SDS011;39536;52.198;9.920;2023-02-28T12:59:01;2.87;;;2.63;;
13967;SDS011;39536;52.198;9.920;2023-02-28T13:01:42;2.87;;;1.87;;
13967;SDS011;39536;52.198;9.920;2023-02-28T13:04:28;2.73;;;2.53;;
13967;SDS011;39536;52.198;9.920;2023-02-28T13:07:10;4.70;;;2.90;;
13967;SDS011;39536;52.198;9.920;2023-02-28T13:09:58;3.33;;;3.03;;
13967;SDS011;39536;52.198;9.920;2023-02-28T13:12:29;4.00;;;2.63;;
13967;SDS011;39536;52.198;9.920;2023-02-28T13:15:01;2.90;;;2.70;;
13967;SDS011;39536;52.198;9.920;2023-02-28T13:17:31;3.00;;;2.70;;
13967;SDS011;39536;52.198;9.920;2023-02-28T13:19:58;4.03;;;3.40;;
13967;SDS011;39536;52.198;9.920;2023-02-28T13:28:13;3.70;;;3.30;;
13967;SDS011;39536;52.198;9.920;2023-02-28T13:44:08;3.20;;;2.87;;
13967;SDS011;39536;52.198;9.920;2023-02-28T13:46:38;3.60;;;2.97;;
13967;SDS011;39536;52.198;9.920;2023-02-28T13:49:43;4.57;;;4.03;;
13967;SDS011;39536;52.198;9.920;2023-02-28T13:52:11;5.47;;;4.17;;
13967;SDS011;39536;52.198;9.920;2023-02-28T13:54:48;4.33;;;3.93;;
13967;SDS011;39536;52.198;9.920;2023-02-28T13:57:42;3.50;;;2.93;;
13967;SDS011;39536;52.198;9.920;2023-02-28T14:00:20;3.10;;;2.90;;
13967;SDS011;39536;52.198;9.920;2023-02-28T14:08:54;3.60;;;3.30;;
13967;SDS011;39536;52.198;9.920;2023-02-28T14:11:29;3.07;;;2.87;;
13967;SDS011;39536;52.198;9.920;2023-02-28T14:13:58;3.97;;;3.50;;
13967;SDS011;39536;52.198;9.920;2023-02-28T14:16:27;4.97;;;4.17;;
13967;SDS011;39536;52.198;9.920;2023-02-28T14:19:05;3.93;;;3.20;;
13967;SDS011;39536;52.198;9.920;2023-02-28T14:21:48;2.77;;;2.57;;
13967;SDS011;39536;52.198;9.920;2023-02-28T14:27:36;2.93;;;2.73;;
13967;SDS011;39536;52.198;9.920;2023-02-28T14:30:16;3.20;;;2.90;;
13967;SDS011;39536;52.198;9.920;2023-02-28T14:33:00;3.23;;;2.93;;
13967;SDS011;39536;52.198;9.920;2023-02-28T14:35:43;3.13;;;2.87;;
13967;SDS011;39536;52.198;9.920;2023-02-28T14:38:22;4.63;;;3.20;;
13967;SDS011;39536;52.198;9.920;2023-02-28T14:40:55;3.03;;;2.83;;
13967;SDS011;39536;52.198;9.920;2023-02-28T14:43:25;4.97;;;3.00;;
13967;SDS011;39536;52.198;9.920;2023-02-28T14:45:56;3.47;;;3.17;;
13967;SDS011;39536;52.198;9.920;2023-02-28T14:48:32;3.00;;;2.80;;
13967;SDS011;39536;52.198;9.920;2023-02-28T14:51:01;3.13;;;2.90;;
13967;SDS011;39536;52.198;9.920;2023-02-28T14:53:28;3.00;;;2.70;;
13967;SDS011;39536;52.198;9.920;2023-02-28T14:55:57;3.30;;;3.00;;
13967;SDS011;39536;52.198;9.920;2023-02-28T14:58:26;3.23;;;2.97;;
13967;SDS011;39536;52.198;9.920;2023-02-28T15:00:55;4.10;;;2.90;;
13967;SDS011;39536;52.198;9.920;2023-02-28T15:03:23;3.00;;;2.80;;
13967;SDS011;39536;52.198;9.920;2023-02-28T15:05:58;3.27;;;2.97;;
13967;SDS011;39536;52.198;9.920;2023-02-28T15:08:27;3.50;;;3.20;;
13967;SDS011;39536;52.198;9.920;2023-02-28T15:10:57;2.93;;;2.73;;
13967;SDS011;39536;52.198;9.920;2023-02-28T15:13:30;3.33;;;3.03;;
13967;SDS011;39536;52.198;9.920;2023-02-28T15:16:02;3.23;;;3.03;;
13967;SDS011;39536;52.198;9.920;2023-02-28T15:18:47;4.13;;;3.13;;
13967;SDS011;39536;52.198;9.920;2023-02-28T15:21:19;3.73;;;3.43;;
13967;SDS011;39536;52.198;9.920;2023-02-28T15:23:51;7.33;;;3.50;;
13967;SDS011;39536;52.198;9.920;2023-02-28T15:26:22;3.40;;;3.13;;
13967;SDS011;39536;52.198;9.920;2023-02-28T15:28:54;3.60;;;3.30;;
13967;SDS011;39536;52.198;9.920;2023-02-28T15:31:26;3.77;;;3.47;;
13967;SDS011;39536;52.198;9.920;2023-02-28T15:33:56;3.67;;;3.30;;
13967;SDS011;39536;52.198;9.920;2023-02-28T15:36:32;3.73;;;3.43;;
13967;SDS011;39536;52.198;9.920;2023-02-28T15:39:02;4.27;;;3.40;;
13967;SDS011;39536;52.198;9.920;2023-02-28T15:41:44;4.47;;;4.07;;
13967;SDS011;39536;52.198;9.920;2023-02-28T15:44:14;4.00;;;3.47;;
13967;SDS011;39536;52.198;9.920;2023-02-28T15:46:43;4.27;;;3.97;;
13967;SDS011;39536;52.198;9.920;2023-02-28T15:49:19;3.87;;;3.57;;